Time;durP1;ratioP1;P1;durP2;ratioP2;P2;SDS_P1;SDS_P2;PMS_P1;PMS_P2;Temp;Humidity;BMP_temperature;BMP_pressure;BME280_temperature;BME280_humidity;BME280_pressure;Samples;Min_cycle;Max_cycle;Signal;HPM_P1;HPM_P2
2022/01/16 00:01:18;;;;;;;5.40;2.00;;;;;;;;;;6313739;28;20463;-78
2022/01/16 00:04:24;;;;;;;3.00;1.93;;;;;;;;;;6315293;28;20252;-78
2022/01/16 00:07:28;;;;;;;4.03;1.83;;;;;;;;;;6314478;28;20291;-78
2022/01/16 00:10:33;;;;;;;3.30;2.10;;;;;;;;;;6312853;28;20375;-78
2022/01/16 00:13:37;;;;;;;2.60;2.03;;;;;;;;;;6314744;28;20187;-78
2022/01/16 00:16:43;;;;;;;2.63;1.90;;;;;;;;;;6314124;28;20266;-78
2022/01/16 00:19:47;;;;;;;4.73;1.70;;;;;;;;;;6313827;28;20185;-78
2022/01/16 00:22:51;;;;;;;5.03;1.80;;;;;;;;;;6313227;28;20542;-78
2022/01/16 00:25:57;;;;;;;1.87;1.77;;;;;;;;;;6313922;28;20235;-78
2022/01/16 00:29:02;;;;;;;4.97;1.90;;;;;;;;;;6314301;28;20191;-78
2022/01/16 00:32:09;;;;;;;3.13;1.50;;;;;;;;;;6314150;28;20292;-78
2022/01/16 00:35:14;;;;;;;2.20;1.90;;;;;;;;;;6314676;28;20239;-78
2022/01/16 00:38:19;;;;;;;2.37;2.17;;;;;;;;;;6313026;28;20232;-78
2022/01/16 00:41:25;;;;;;;5.50;2.00;;;;;;;;;;6312931;28;20232;-78
2022/01/16 00:44:29;;;;;;;4.13;1.57;;;;;;;;;;6313523;28;20230;-78
2022/01/16 00:47:34;;;;;;;5.27;2.20;;;;;;;;;;6313464;28;20232;-78
2022/01/16 00:50:38;;;;;;;7.07;2.03;;;;;;;;;;6312596;28;20493;-78
2022/01/16 00:53:43;;;;;;;1.80;1.70;;;;;;;;;;6313978;28;20184;-78
2022/01/16 00:56:47;;;;;;;1.87;1.77;;;;;;;;;;6294409;28;20519;-78
2022/01/16 00:59:52;;;;;;;6.80;1.70;;;;;;;;;;6312853;28;20270;-78
2022/01/16 01:02:57;;;;;;;6.80;2.10;;;;;;;;;;6312006;28;20288;-78
2022/01/16 01:06:02;;;;;;;4.43;1.87;;;;;;;;;;6312867;28;20252;-78
2022/01/16 01:09:07;;;;;;;3.33;2.00;;;;;;;;;;6313378;28;20214;-78
2022/01/16 01:12:25;;;;;;;3.57;2.00;;;;;;;;;;6312679;28;20239;-78
2022/01/16 01:15:40;;;;;;;2.57;1.80;;;;;;;;;;6312575;28;20188;-78
2022/01/16 01:18:45;;;;;;;1.90;1.77;;;;;;;;;;6313651;28;20192;-78
2022/01/16 01:21:49;;;;;;;3.23;1.77;;;;;;;;;;6312808;28;20231;-78
2022/01/16 01:24:54;;;;;;;17.67;2.00;;;;;;;;;;6313298;28;20192;-78
2022/01/16 01:27:58;;;;;;;9.50;2.00;;;;;;;;;;6312592;28;20242;-78
2022/01/16 01:31:02;;;;;;;5.33;1.80;;;;;;;;;;6312850;28;20293;-78
2022/01/16 01:34:08;;;;;;;3.13;2.00;;;;;;;;;;6312117;28;20504;-78
2022/01/16 01:37:13;;;;;;;8.23;1.90;;;;;;;;;;6312432;28;20302;-78
2022/01/16 01:40:19;;;;;;;7.07;1.93;;;;;;;;;;6313204;28;20261;-78
2022/01/16 01:53:43;;;;;;;7.80;1.80;;;;;;;;;;6311628;28;20496;-78
2022/01/16 01:56:48;;;;;;;9.10;2.10;;;;;;;;;;6311749;28;20229;-78
2022/01/16 01:59:52;;;;;;;7.63;2.20;;;;;;;;;;6311618;28;20492;-78
2022/01/16 02:03:11;;;;;;;7.70;1.90;;;;;;;;;;6312068;28;20295;-78
2022/01/16 02:06:19;;;;;;;2.77;2.10;;;;;;;;;;6310887;28;20295;-78
2022/01/16 02:09:23;;;;;;;10.50;2.47;;;;;;;;;;6313100;28;20186;-78
2022/01/16 02:12:28;;;;;;;2.20;2.03;;;;;;;;;;6316777;28;20337;-78
2022/01/16 02:27:55;;;;;;;6.40;1.93;;;;;;;;;;6316111;28;20210;-78
2022/01/16 02:29:41;;;;;;;2.63;1.97;;;;;;;;;;6316571;28;20244;-78
2022/01/16 02:33:22;;;;;;;12.03;2.33;;;;;;;;;;6316531;28;20334;-78
2022/01/16 02:36:30;;;;;;;4.37;2.17;;;;;;;;;;6316295;28;20248;-78
2022/01/16 02:39:38;;;;;;;9.57;2.20;;;;;;;;;;6317419;28;20192;-78
2022/01/16 02:42:48;;;;;;;5.13;2.17;;;;;;;;;;6315747;28;20505;-78
2022/01/16 02:46:09;;;;;;;7.97;2.33;;;;;;;;;;6315652;28;20408;-78
2022/01/16 02:49:19;;;;;;;2.67;1.90;;;;;;;;;;6315516;28;20194;-78
2022/01/16 02:52:23;;;;;;;3.03;1.80;;;;;;;;;;6316277;28;20234;-78
2022/01/16 02:55:28;;;;;;;1.60;1.53;;;;;;;;;;6315204;28;20237;-78
2022/01/16 02:58:33;;;;;;;11.33;2.43;;;;;;;;;;6315943;28;20191;-78
2022/01/16 03:01:38;;;;;;;7.20;1.90;;;;;;;;;;6315373;28;20233;-78
2022/01/16 03:04:43;;;;;;;5.70;2.17;;;;;;;;;;6315973;28;20185;-78
2022/01/16 03:07:48;;;;;;;4.10;2.00;;;;;;;;;;6315183;28;20241;-78
2022/01/16 03:11:10;;;;;;;5.60;2.20;;;;;;;;;;6314967;28;20230;-78
2022/01/16 03:14:15;;;;;;;8.07;2.07;;;;;;;;;;6316224;28;20187;-78
2022/01/16 03:17:23;;;;;;;4.03;1.87;;;;;;;;;;6315714;28;20282;-78
2022/01/16 03:23:51;;;;;;;7.57;1.83;;;;;;;;;;6314956;28;20185;-78
2022/01/16 03:26:59;;;;;;;7.30;2.07;;;;;;;;;;6314992;28;20229;-78
2022/01/16 03:30:04;;;;;;;2.00;1.90;;;;;;;;;;6315428;28;20213;-78
2022/01/16 03:33:14;;;;;;;4.23;2.03;;;;;;;;;;6315199;28;20551;-78
2022/01/16 03:36:18;;;;;;;2.87;2.00;;;;;;;;;;6314624;28;20233;-78
2022/01/16 03:39:22;;;;;;;4.07;1.93;;;;;;;;;;6315516;28;20189;-78
2022/01/16 03:42:32;;;;;;;8.13;2.00;;;;;;;;;;6314404;28;20530;-78
2022/01/16 03:45:37;;;;;;;8.17;2.50;;;;;;;;;;6315074;28;20232;-78
2022/01/16 03:48:41;;;;;;;4.53;2.17;;;;;;;;;;6314297;28;20543;-78
2022/01/16 03:51:47;;;;;;;4.90;2.23;;;;;;;;;;6314540;28;20234;-78
2022/01/16 03:54:51;;;;;;;6.90;2.20;;;;;;;;;;6314132;28;20194;-78
2022/01/16 03:57:56;;;;;;;3.57;2.20;;;;;;;;;;6314094;28;20251;-78
2022/01/16 04:01:01;;;;;;;4.87;1.93;;;;;;;;;;6314740;28;20234;-78
2022/01/16 04:04:06;;;;;;;7.57;2.43;;;;;;;;;;6313746;28;20495;-78
2022/01/16 04:07:17;;;;;;;10.93;2.53;;;;;;;;;;6314480;28;20230;-78
2022/01/16 04:10:22;;;;;;;8.40;1.90;;;;;;;;;;6314299;28;20185;-78
2022/01/16 04:13:31;;;;;;;9.80;2.90;;;;;;;;;;6313835;28;20214;-78
2022/01/16 04:16:35;;;;;;;3.40;2.20;;;;;;;;;;6314130;28;20230;-78
2022/01/16 04:19:40;;;;;;;5.13;2.10;;;;;;;;;;6314705;28;20289;-78
2022/01/16 04:22:45;;;;;;;11.50;2.50;;;;;;;;;;6314310;28;20230;-78
2022/01/16 04:25:49;;;;;;;14.00;2.73;;;;;;;;;;6313918;28;20293;-78
2022/01/16 04:28:55;;;;;;;8.43;2.20;;;;;;;;;;6313609;28;20398;-78
2022/01/16 04:31:59;;;;;;;7.97;2.07;;;;;;;;;;6313831;28;20237;-78
2022/01/16 04:35:04;;;;;;;6.70;2.03;;;;;;;;;;6314381;28;20284;-78
2022/01/16 04:38:09;;;;;;;8.87;2.10;;;;;;;;;;6312941;28;20238;-78
2022/01/16 04:44:37;;;;;;;6.03;2.07;;;;;;;;;;6313100;28;20486;-78
2022/01/16 04:47:42;;;;;;;12.87;2.23;;;;;;;;;;6312574;28;20238;-78
2022/01/16 04:50:48;;;;;;;3.70;2.33;;;;;;;;;;6312290;28;20293;-78
2022/01/16 04:53:52;;;;;;;2.73;2.00;;;;;;;;;;6312800;28;20186;-76
2022/01/16 04:56:56;;;;;;;6.33;2.17;;;;;;;;;;6312196;28;20226;-77
2022/01/16 05:00:02;;;;;;;7.67;1.93;;;;;;;;;;6312949;28;20188;-77
2022/01/16 05:03:09;;;;;;;6.73;2.03;;;;;;;;;;6312210;28;20385;-77
2022/01/16 05:06:14;;;;;;;2.33;2.03;;;;;;;;;;6311794;28;20236;-77
2022/01/16 05:09:18;;;;;;;5.33;2.20;;;;;;;;;;6311771;28;20529;-77
2022/01/16 05:12:30;;;;;;;3.97;2.37;;;;;;;;;;6311974;28;20234;-77
2022/01/16 05:18:58;;;;;;;2.60;2.10;;;;;;;;;;6313104;28;20259;-77
2022/01/16 05:22:02;;;;;;;4.07;2.17;;;;;;;;;;6311524;28;20415;-77
2022/01/16 05:25:08;;;;;;;5.67;1.90;;;;;;;;;;6311672;28;20186;-77
2022/01/16 05:28:20;;;;;;;4.10;2.00;;;;;;;;;;6311479;28;20230;-77
2022/01/16 05:31:26;;;;;;;4.40;1.83;;;;;;;;;;6311965;28;20257;-77
2022/01/16 05:34:30;;;;;;;8.40;2.20;;;;;;;;;;6312337;28;20297;-77
2022/01/16 05:37:34;;;;;;;6.27;1.97;;;;;;;;;;6311617;28;20226;-77
2022/01/16 05:40:39;;;;;;;1.73;1.63;;;;;;;;;;6311194;28;20220;-77
2022/01/16 05:43:43;;;;;;;3.93;1.60;;;;;;;;;;6310596;28;20183;-77
2022/01/16 05:46:48;;;;;;;4.17;2.40;;;;;;;;;;6311587;28;20245;-77
2022/01/16 05:49:52;;;;;;;4.23;1.87;;;;;;;;;;6311727;28;20210;-77
2022/01/16 05:53:16;;;;;;;3.87;2.10;;;;;;;;;;6311762;28;20261;-77
2022/01/16 05:56:20;;;;;;;4.63;1.70;;;;;;;;;;6311849;28;20247;-77
2022/01/16 05:59:25;;;;;;;3.47;1.70;;;;;;;;;;6311519;28;20195;-77
2022/01/16 06:02:30;;;;;;;5.93;2.20;;;;;;;;;;6311612;28;20251;-77
2022/01/16 06:05:34;;;;;;;4.83;1.63;;;;;;;;;;6310549;28;20415;-77
2022/01/16 06:08:39;;;;;;;6.97;1.80;;;;;;;;;;6310979;28;20210;-77
2022/01/16 06:11:43;;;;;;;1.93;1.80;;;;;;;;;;6311027;28;20238;-77
2022/01/16 06:14:47;;;;;;;1.67;1.60;;;;;;;;;;6312353;28;20194;-77
2022/01/16 06:17:53;;;;;;;1.40;1.30;;;;;;;;;;6310585;28;20306;-77
2022/01/16 06:20:57;;;;;;;3.60;1.60;;;;;;;;;;6311287;28;20248;-77
2022/01/16 06:24:03;;;;;;;2.80;1.90;;;;;;;;;;6311715;28;20188;-77
2022/01/16 06:27:07;;;;;;;1.13;1.13;;;;;;;;;;6311304;28;20232;-77
2022/01/16 06:30:12;;;;;;;70.80;32.57;;;;;;;;;;6310827;28;20207;-77
2022/01/16 06:33:21;;;;;;;20.47;14.53;;;;;;;;;;6310142;28;20234;-77
2022/01/16 06:36:25;;;;;;;2.53;1.20;;;;;;;;;;6310633;28;20231;-77
2022/01/16 06:39:29;;;;;;;3.20;1.30;;;;;;;;;;6311856;28;20241;-77
2022/01/16 06:42:33;;;;;;;1.53;1.37;;;;;;;;;;6310617;28;20290;-77
2022/01/16 06:45:38;;;;;;;2.00;1.87;;;;;;;;;;6311424;28;20247;-77
2022/01/16 06:48:43;;;;;;;2.40;1.53;;;;;;;;;;6311202;28;20184;-77
2022/01/16 06:51:48;;;;;;;2.60;1.80;;;;;;;;;;6311050;28;20231;-77
2022/01/16 06:54:52;;;;;;;1.33;1.23;;;;;;;;;;6311942;28;20185;-77
2022/01/16 06:57:56;;;;;;;2.77;1.50;;;;;;;;;;6315237;28;20229;-77
2022/01/16 07:01:00;;;;;;;3.77;1.30;;;;;;;;;;6314991;28;20232;-77
2022/01/16 07:04:07;;;;;;;1.17;1.17;;;;;;;;;;6314855;28;20319;-77
2022/01/16 07:07:12;;;;;;;1.07;1.07;;;;;;;;;;6315140;28;20297;-77
2022/01/16 07:10:23;;;;;;;0.80;0.80;;;;;;;;;;6315248;28;20256;-77
2022/01/16 07:13:29;;;;;;;1.30;1.30;;;;;;;;;;6315875;28;20209;-77
2022/01/16 07:16:34;;;;;;;3.63;1.20;;;;;;;;;;6314377;28;20234;-77
2022/01/16 07:19:39;;;;;;;0.97;0.97;;;;;;;;;;6314383;28;20575;-77
2022/01/16 07:22:43;;;;;;;1.20;1.20;;;;;;;;;;6314115;28;20234;-77
2022/01/16 07:25:48;;;;;;;1.10;1.10;;;;;;;;;;6314875;28;20224;-77
2022/01/16 07:28:52;;;;;;;1.00;1.00;;;;;;;;;;6315379;28;20218;-77
2022/01/16 07:31:57;;;;;;;1.37;1.37;;;;;;;;;;6313747;28;20462;-77
2022/01/16 07:35:03;;;;;;;1.77;0.97;;;;;;;;;;6314665;28;20446;-77
2022/01/16 07:38:26;;;;;;;3.83;1.10;;;;;;;;;;6314891;28;20209;-77
2022/01/16 07:41:30;;;;;;;2.60;1.10;;;;;;;;;;6313676;28;20300;-77
2022/01/16 07:44:34;;;;;;;0.90;0.90;;;;;;;;;;6315262;28;20187;-78
2022/01/16 07:47:39;;;;;;;1.00;1.00;;;;;;;;;;6314153;28;20589;-77
2022/01/16 07:50:44;;;;;;;1.00;1.00;;;;;;;;;;6313645;28;20235;-78
2022/01/16 07:53:48;;;;;;;1.00;1.00;;;;;;;;;;6315046;28;20183;-77
2022/01/16 07:56:52;;;;;;;1.00;1.00;;;;;;;;;;6313291;28;20465;-77
2022/01/16 07:59:56;;;;;;;0.97;0.97;;;;;;;;;;6314303;28;20221;-77
2022/01/16 08:03:01;;;;;;;0.90;0.90;;;;;;;;;;6313586;28;20324;-77
2022/01/16 08:06:07;;;;;;;1.20;1.20;;;;;;;;;;6313869;28;20229;-77
2022/01/16 08:09:11;;;;;;;0.90;0.90;;;;;;;;;;6313770;28;20190;-78
2022/01/16 08:12:15;;;;;;;0.90;0.90;;;;;;;;;;6313441;28;20229;-77
2022/01/16 08:15:19;;;;;;;1.10;1.10;;;;;;;;;;6314326;28;20233;-77
2022/01/16 08:18:24;;;;;;;1.33;1.00;;;;;;;;;;6314171;28;20274;-77
2022/01/16 08:21:29;;;;;;;1.10;1.10;;;;;;;;;;6313130;28;20233;-78
2022/01/16 08:24:33;;;;;;;1.07;1.07;;;;;;;;;;6314200;28;20221;-78
2022/01/16 08:27:37;;;;;;;1.00;1.00;;;;;;;;;;6313277;28;20298;-78
2022/01/16 08:30:41;;;;;;;1.23;1.23;;;;;;;;;;6312660;28;20406;-78
2022/01/16 08:33:46;;;;;;;1.70;1.00;;;;;;;;;;6314209;28;20253;-78
2022/01/16 08:36:52;;;;;;;2.10;1.13;;;;;;;;;;6312751;28;20242;-78
2022/01/16 08:39:56;;;;;;;3.07;1.30;;;;;;;;;;6313117;28;20194;-78
2022/01/16 08:43:07;;;;;;;1.10;1.10;;;;;;;;;;6313445;28;20238;-78
2022/01/16 08:46:13;;;;;;;1.13;1.13;;;;;;;;;;6313044;28;20236;-78
2022/01/16 08:49:17;;;;;;;1.50;1.40;;;;;;;;;;6313557;28;20266;-78
2022/01/16 08:52:23;;;;;;;1.10;1.10;;;;;;;;;;6312603;28;20243;-78
2022/01/16 08:55:27;;;;;;;2.30;1.50;;;;;;;;;;6311903;28;20470;-78
2022/01/16 08:58:31;;;;;;;1.10;1.10;;;;;;;;;;6313010;28;20247;-78
2022/01/16 09:01:35;;;;;;;1.10;1.10;;;;;;;;;;6312715;28;20265;-78
2022/01/16 09:04:40;;;;;;;1.00;1.00;;;;;;;;;;6312040;28;20470;-78
2022/01/16 09:07:46;;;;;;;2.10;1.17;;;;;;;;;;6311708;28;20238;-78
2022/01/16 09:10:50;;;;;;;1.10;1.10;;;;;;;;;;6312692;28;20230;-78
2022/01/16 09:13:54;;;;;;;2.13;1.00;;;;;;;;;;6312982;28;20249;-78
2022/01/16 09:16:58;;;;;;;1.17;1.17;;;;;;;;;;6312664;28;20298;-78
2022/01/16 09:20:03;;;;;;;1.30;1.30;;;;;;;;;;6313484;28;20186;-79
2022/01/16 09:23:11;;;;;;;1.10;1.10;;;;;;;;;;6311349;28;20346;-78
2022/01/16 09:26:16;;;;;;;1.10;1.10;;;;;;;;;;6311804;28;20237;-78
2022/01/16 09:29:20;;;;;;;1.10;1.10;;;;;;;;;;6312538;28;20264;-78
2022/01/16 09:32:24;;;;;;;1.10;1.10;;;;;;;;;;6312256;28;20547;-78
2022/01/16 09:35:31;;;;;;;1.10;1.10;;;;;;;;;;6313005;28;20236;-78
2022/01/16 09:38:37;;;;;;;1.20;1.20;;;;;;;;;;6314999;28;20234;-78
2022/01/16 09:41:44;;;;;;;1.00;1.00;;;;;;;;;;6315187;28;20231;-78
2022/01/16 09:44:48;;;;;;;1.10;1.10;;;;;;;;;;6316700;28;20240;-78
2022/01/16 09:47:52;;;;;;;1.37;1.37;;;;;;;;;;6314712;28;20268;-77
2022/01/16 09:50:57;;;;;;;1.10;1.10;;;;;;;;;;6311392;28;20238;-78
2022/01/16 09:54:02;;;;;;;1.07;1.07;;;;;;;;;;6312815;28;20218;-77
2022/01/16 09:57:07;;;;;;;1.00;1.00;;;;;;;;;;6310987;28;20421;-77
2022/01/16 10:00:13;;;;;;;1.13;1.13;;;;;;;;;;6311814;28;20186;-77
2022/01/16 10:03:33;;;;;;;1.00;1.00;;;;;;;;;;6311206;28;20237;-77
2022/01/16 10:06:39;;;;;;;1.10;1.00;;;;;;;;;;6311125;28;20415;-77
2022/01/16 10:10:06;;;;;;;1.00;0.97;;;;;;;;;;6311024;28;20529;-78
2022/01/16 10:13:21;;;;;;;0.90;0.90;;;;;;;;;;6310982;28;20283;-77
2022/01/16 10:16:27;;;;;;;1.07;1.07;;;;;;;;;;6313974;28;20299;-79
2022/01/16 10:19:32;;;;;;;1.00;0.87;;;;;;;;;;6312177;28;20191;-77
2022/01/16 10:22:40;;;;;;;1.00;1.00;;;;;;;;;;6310983;28;20232;-78
2022/01/16 10:25:48;;;;;;;1.00;1.00;;;;;;;;;;6311732;28;20226;-79
2022/01/16 10:28:52;;;;;;;1.80;0.80;;;;;;;;;;6311558;28;20201;-79
2022/01/16 10:32:11;;;;;;;1.00;1.00;;;;;;;;;;6318158;28;20242;-79
2022/01/16 10:35:17;;;;;;;1.03;0.90;;;;;;;;;;6318485;28;20261;-79
2022/01/16 10:38:24;;;;;;;0.90;0.90;;;;;;;;;;6319058;28;20237;-76
2022/01/16 10:41:29;;;;;;;0.97;0.97;;;;;;;;;;6321906;28;20251;-76
2022/01/16 10:44:35;;;;;;;0.90;0.90;;;;;;;;;;6323201;28;20184;-75
2022/01/16 10:47:51;;;;;;;0.90;0.90;;;;;;;;;;6317629;28;20230;-76
2022/01/16 10:50:57;;;;;;;0.80;0.80;;;;;;;;;;6303043;28;20298;-77
2022/01/16 10:54:31;;;;;;;0.90;0.90;;;;;;;;;;6318563;28;20248;-76
2022/01/16 10:57:37;;;;;;;1.00;1.00;;;;;;;;;;6315863;28;20287;-76
2022/01/16 11:00:43;;;;;;;1.50;1.00;;;;;;;;;;6315748;28;20205;-77
2022/01/16 11:03:49;;;;;;;0.93;0.93;;;;;;;;;;6314679;28;20266;-77
2022/01/16 11:07:01;;;;;;;0.80;0.80;;;;;;;;;;6314837;28;20407;-78
2022/01/16 11:10:22;;;;;;;1.13;1.03;;;;;;;;;;6314579;28;20219;-77
2022/01/16 11:13:32;;;;;;;0.90;0.90;;;;;;;;;;6313743;28;20420;-77
2022/01/16 11:16:37;;;;;;;0.90;0.90;;;;;;;;;;6314953;28;20280;-77
2022/01/16 11:19:41;;;;;;;1.03;0.90;;;;;;;;;;6314554;28;20292;-77
2022/01/16 11:22:58;;;;;;;1.00;1.00;;;;;;;;;;6313550;28;20293;-77
2022/01/16 11:26:03;;;;;;;1.70;0.77;;;;;;;;;;6314238;28;20503;-77
2022/01/16 11:29:10;;;;;;;1.17;0.90;;;;;;;;;;6313756;28;20246;-77
2022/01/16 11:32:14;;;;;;;1.00;1.00;;;;;;;;;;6314806;28;20497;-77
2022/01/16 11:35:19;;;;;;;0.80;0.80;;;;;;;;;;6314736;28;20286;-77
2022/01/16 11:38:26;;;;;;;0.70;0.70;;;;;;;;;;6314246;28;20239;-77
2022/01/16 11:41:33;;;;;;;1.33;1.00;;;;;;;;;;6312657;28;20186;-77
2022/01/16 11:44:40;;;;;;;0.60;0.60;;;;;;;;;;6313724;28;20231;-77
2022/01/16 11:47:57;;;;;;;0.70;0.70;;;;;;;;;;6312872;28;20231;-77
2022/01/16 11:51:02;;;;;;;0.80;0.80;;;;;;;;;;6313680;28;20444;-77
2022/01/16 11:54:08;;;;;;;0.77;0.77;;;;;;;;;;6313675;28;20236;-77
2022/01/16 11:57:25;;;;;;;0.80;0.80;;;;;;;;;;6313885;28;20245;-77
2022/01/16 12:00:44;;;;;;;0.87;0.87;;;;;;;;;;6314565;28;20187;-77
2022/01/16 12:03:48;;;;;;;0.90;0.90;;;;;;;;;;6313657;28;20240;-77
2022/01/16 12:06:52;;;;;;;0.90;0.90;;;;;;;;;;6314460;28;20249;-77
2022/01/16 12:09:59;;;;;;;0.60;0.60;;;;;;;;;;6313038;28;20234;-77
2022/01/16 12:13:04;;;;;;;0.70;0.70;;;;;;;;;;6312769;28;20261;-77
2022/01/16 12:16:50;;;;;;;0.90;0.90;;;;;;;;;;6313907;28;20230;-76
2022/01/16 12:19:56;;;;;;;0.87;0.87;;;;;;;;;;6313935;28;20290;-77
2022/01/16 12:23:04;;;;;;;0.87;0.87;;;;;;;;;;6312725;28;20403;-77
2022/01/16 12:26:34;;;;;;;0.80;0.80;;;;;;;;;;6312967;28;20199;-78
2022/01/16 12:30:23;;;;;;;1.20;0.80;;;;;;;;;;6312931;28;20564;-77
2022/01/16 12:33:29;;;;;;;1.00;1.00;;;;;;;;;;6178331;28;20244;-77
2022/01/16 12:36:36;;;;;;;0.80;0.80;;;;;;;;;;6269830;28;20524;-77
2022/01/16 12:39:43;;;;;;;0.70;0.70;;;;;;;;;;6264543;28;20328;-78
2022/01/16 12:42:46;;;;;;;0.83;0.83;;;;;;;;;;6269412;28;20254;-76
2022/01/16 12:45:51;;;;;;;1.00;1.00;;;;;;;;;;6289030;28;20191;-77
2022/01/16 12:48:57;;;;;;;0.77;0.77;;;;;;;;;;6288151;28;20228;-77
2022/01/16 12:52:03;;;;;;;0.80;0.80;;;;;;;;;;6288158;28;20192;-78
2022/01/16 12:55:10;;;;;;;1.40;0.90;;;;;;;;;;6288592;28;20273;-77
2022/01/16 12:58:15;;;;;;;0.77;0.77;;;;;;;;;;6287723;28;20522;-77
2022/01/16 13:01:19;;;;;;;0.80;0.80;;;;;;;;;;6288652;28;20185;-77
2022/01/16 13:04:27;;;;;;;0.80;0.80;;;;;;;;;;6287317;28;20242;-77
2022/01/16 13:07:33;;;;;;;0.80;0.80;;;;;;;;;;6286764;28;20301;-77
2022/01/16 13:10:38;;;;;;;0.93;0.93;;;;;;;;;;6287840;28;20219;-77
2022/01/16 13:13:41;;;;;;;0.80;0.80;;;;;;;;;;6286855;28;20312;-76
2022/01/16 13:16:47;;;;;;;0.80;0.80;;;;;;;;;;6288180;28;20188;-77
2022/01/16 13:19:52;;;;;;;2.10;0.80;;;;;;;;;;6286292;28;20239;-78
2022/01/16 13:22:58;;;;;;;0.80;0.80;;;;;;;;;;6288988;28;20339;-76
2022/01/16 13:26:02;;;;;;;0.90;0.90;;;;;;;;;;6292108;28;20219;-77
2022/01/16 13:29:07;;;;;;;1.00;1.00;;;;;;;;;;6289524;28;20228;-77
2022/01/16 13:32:16;;;;;;;0.80;0.80;;;;;;;;;;6287567;28;20211;-81
2022/01/16 13:35:22;;;;;;;0.80;0.80;;;;;;;;;;6288700;28;20525;-79
2022/01/16 13:38:31;;;;;;;0.80;0.80;;;;;;;;;;6269978;28;20249;-78
2022/01/16 13:41:42;;;;;;;0.90;0.90;;;;;;;;;;6290240;28;20217;-79
2022/01/16 13:44:47;;;;;;;0.80;0.80;;;;;;;;;;6287811;28;20282;-79
2022/01/16 13:47:56;;;;;;;1.10;0.60;;;;;;;;;;6286925;28;20431;-79
2022/01/16 13:51:01;;;;;;;0.90;0.90;;;;;;;;;;6287175;28;20219;-78
2022/01/16 13:54:13;;;;;;;1.60;0.90;;;;;;;;;;6287020;28;20465;-79
2022/01/16 13:57:30;;;;;;;1.00;1.00;;;;;;;;;;6296845;28;20225;-79
2022/01/16 14:00:35;;;;;;;0.90;0.90;;;;;;;;;;6312726;28;20191;-79
2022/01/16 14:03:47;;;;;;;0.90;0.90;;;;;;;;;;6312532;28;20234;-79
2022/01/16 14:06:59;;;;;;;0.80;0.80;;;;;;;;;;6311616;28;20375;-79
2022/01/16 14:10:05;;;;;;;0.87;0.87;;;;;;;;;;6311636;28;20238;-79
2022/01/16 14:13:12;;;;;;;1.17;1.07;;;;;;;;;;6311480;28;20254;-79
2022/01/16 14:16:18;;;;;;;0.87;0.87;;;;;;;;;;6313295;28;20472;-79
2022/01/16 14:19:26;;;;;;;0.80;0.73;;;;;;;;;;6312624;28;20280;-78
2022/01/16 14:22:30;;;;;;;1.00;0.80;;;;;;;;;;6312309;28;20230;-78
2022/01/16 14:25:35;;;;;;;1.10;1.00;;;;;;;;;;6311914;28;20269;-78
2022/01/16 14:28:39;;;;;;;0.97;0.90;;;;;;;;;;6312827;28;20341;-80
2022/01/16 14:31:44;;;;;;;0.80;0.80;;;;;;;;;;6313024;28;20269;-78
2022/01/16 14:34:50;;;;;;;2.87;1.03;;;;;;;;;;6311671;28;20238;-78
2022/01/16 14:37:54;;;;;;;2.10;1.00;;;;;;;;;;6312066;28;20230;-78
2022/01/16 14:40:59;;;;;;;1.00;1.00;;;;;;;;;;6312461;28;20184;-77
2022/01/16 14:44:05;;;;;;;1.10;1.00;;;;;;;;;;6311853;28;20236;-77
2022/01/16 14:47:10;;;;;;;1.20;1.10;;;;;;;;;;6311817;28;20187;-78
2022/01/16 14:50:15;;;;;;;1.40;1.30;;;;;;;;;;6312471;28;20187;-79
2022/01/16 14:53:20;;;;;;;3.10;1.00;;;;;;;;;;6313180;28;20258;-78
2022/01/16 14:56:26;;;;;;;2.30;1.17;;;;;;;;;;6313239;28;20253;-78
2022/01/16 14:59:32;;;;;;;4.00;1.00;;;;;;;;;;6311807;28;20262;-78
2022/01/16 15:02:37;;;;;;;1.80;1.27;;;;;;;;;;6312001;28;20247;-78
2022/01/16 15:05:41;;;;;;;1.03;0.90;;;;;;;;;;6312211;28;20261;-77
2022/01/16 15:08:48;;;;;;;1.50;1.20;;;;;;;;;;6310967;28;20246;-77
2022/01/16 15:11:53;;;;;;;1.03;1.03;;;;;;;;;;6311224;28;20193;-78
2022/01/16 15:14:57;;;;;;;2.27;1.33;;;;;;;;;;6311968;28;20295;-77
2022/01/16 15:18:02;;;;;;;1.20;1.20;;;;;;;;;;6316047;28;20240;-77
2022/01/16 15:21:08;;;;;;;1.30;1.30;;;;;;;;;;6315569;28;20189;-78
2022/01/16 15:24:12;;;;;;;1.20;1.20;;;;;;;;;;6315051;28;20233;-78
2022/01/16 15:27:18;;;;;;;2.63;1.10;;;;;;;;;;6314881;28;20185;-79
2022/01/16 15:30:23;;;;;;;3.53;1.33;;;;;;;;;;6316276;28;20187;-79
2022/01/16 15:33:28;;;;;;;1.40;1.40;;;;;;;;;;6315878;28;20284;-78
2022/01/16 15:36:32;;;;;;;2.43;1.40;;;;;;;;;;6315870;28;20309;-78
2022/01/16 15:39:37;;;;;;;1.50;1.40;;;;;;;;;;6315276;28;20444;-78
2022/01/16 15:42:43;;;;;;;1.80;1.13;;;;;;;;;;6314915;28;20502;-78
2022/01/16 15:45:48;;;;;;;1.40;1.27;;;;;;;;;;6315582;28;20222;-78
2022/01/16 15:48:52;;;;;;;3.23;1.53;;;;;;;;;;6314503;28;20431;-78
2022/01/16 15:51:56;;;;;;;1.00;1.00;;;;;;;;;;6316520;28;20241;-78
2022/01/16 15:55:00;;;;;;;1.20;1.10;;;;;;;;;;6315122;28;20238;-78
2022/01/16 15:58:06;;;;;;;1.20;1.20;;;;;;;;;;6314563;28;20229;-78
2022/01/16 16:01:10;;;;;;;3.10;1.20;;;;;;;;;;6315547;28;20248;-78
2022/01/16 16:04:15;;;;;;;1.13;1.13;;;;;;;;;;6315084;28;20250;-78
2022/01/16 16:07:19;;;;;;;1.17;1.17;;;;;;;;;;6312804;28;20413;-78
2022/01/16 16:10:23;;;;;;;2.57;1.40;;;;;;;;;;6314748;28;20261;-78
2022/01/16 16:13:29;;;;;;;1.47;1.20;;;;;;;;;;6313705;28;20242;-78
2022/01/16 16:16:33;;;;;;;1.23;1.23;;;;;;;;;;6315063;28;20308;-78
2022/01/16 16:19:37;;;;;;;1.67;1.57;;;;;;;;;;6314181;28;20525;-78
2022/01/16 16:22:41;;;;;;;2.07;1.33;;;;;;;;;;6313427;28;20223;-78
2022/01/16 16:25:45;;;;;;;1.47;1.40;;;;;;;;;;6314190;28;20268;-78
2022/01/16 16:28:51;;;;;;;1.70;1.60;;;;;;;;;;6312736;28;20236;-77
2022/01/16 16:31:55;;;;;;;2.63;1.60;;;;;;;;;;6314583;28;20265;-78
2022/01/16 16:34:59;;;;;;;2.00;1.50;;;;;;;;;;6313669;28;20257;-78
2022/01/16 16:38:04;;;;;;;3.13;1.43;;;;;;;;;;6312934;28;20262;-78
2022/01/16 16:41:10;;;;;;;1.73;1.63;;;;;;;;;;6313459;28;20187;-78
2022/01/16 16:44:15;;;;;;;1.37;1.23;;;;;;;;;;6313558;28;20238;-78
2022/01/16 16:47:20;;;;;;;2.30;1.40;;;;;;;;;;6313328;28;20252;-78
2022/01/16 16:50:29;;;;;;;2.70;1.40;;;;;;;;;;6312955;28;20215;-78
2022/01/16 16:53:33;;;;;;;1.50;1.40;;;;;;;;;;6312648;28;20322;-78
2022/01/16 16:56:47;;;;;;;2.23;1.20;;;;;;;;;;6313264;28;20226;-78
2022/01/16 16:59:52;;;;;;;3.90;1.80;;;;;;;;;;6312450;28;20253;-78
2022/01/16 17:02:57;;;;;;;4.83;1.40;;;;;;;;;;6313280;28;20296;-78
2022/01/16 17:06:01;;;;;;;1.80;1.23;;;;;;;;;;6314159;28;20226;-78
2022/01/16 17:09:06;;;;;;;1.70;1.60;;;;;;;;;;6313421;28;20234;-78
2022/01/16 17:12:14;;;;;;;1.40;1.40;;;;;;;;;;6313672;28;20198;-78
2022/01/16 17:15:19;;;;;;;1.53;1.40;;;;;;;;;;6312647;28;20590;-77
2022/01/16 17:18:30;;;;;;;4.00;1.50;;;;;;;;;;6313585;28;20229;-79
2022/01/16 17:21:34;;;;;;;2.23;1.40;;;;;;;;;;6313204;28;20187;-78
2022/01/16 17:24:39;;;;;;;4.77;1.37;;;;;;;;;;6313646;28;20237;-78
2022/01/16 17:27:43;;;;;;;3.20;1.43;;;;;;;;;;6312935;28;20244;-78
2022/01/16 17:30:49;;;;;;;1.50;1.33;;;;;;;;;;6312952;28;20190;-78
2022/01/16 17:33:53;;;;;;;1.53;1.37;;;;;;;;;;6311402;28;20251;-78
2022/01/16 17:36:58;;;;;;;4.67;1.67;;;;;;;;;;6313140;28;20248;-78
2022/01/16 17:40:02;;;;;;;3.63;1.40;;;;;;;;;;6311816;28;20574;-78
2022/01/16 17:43:08;;;;;;;2.93;1.53;;;;;;;;;;6311897;28;20236;-78
2022/01/16 17:46:14;;;;;;;1.90;1.40;;;;;;;;;;6311858;28;20235;-78
2022/01/16 17:49:18;;;;;;;1.37;1.30;;;;;;;;;;6312108;28;20297;-78
2022/01/16 17:52:22;;;;;;;2.60;1.40;;;;;;;;;;6311944;28;20464;-78
2022/01/16 17:55:27;;;;;;;1.80;1.63;;;;;;;;;;6312164;28;20573;-78
2022/01/16 17:58:31;;;;;;;1.63;1.53;;;;;;;;;;6311799;28;20290;-77
2022/01/16 18:01:37;;;;;;;2.07;1.73;;;;;;;;;;6313352;28;20186;-79
2022/01/16 18:04:41;;;;;;;4.90;1.60;;;;;;;;;;6312837;28;20256;-77
2022/01/16 18:07:46;;;;;;;1.70;1.60;;;;;;;;;;6312071;28;20224;-78
2022/01/16 18:10:50;;;;;;;1.60;1.50;;;;;;;;;;6311202;28;20223;-77
2022/01/16 18:13:54;;;;;;;1.40;1.40;;;;;;;;;;6310961;28;20235;-77
2022/01/16 18:17:00;;;;;;;1.40;1.40;;;;;;;;;;6312438;28;20273;-77
2022/01/16 18:20:05;;;;;;;1.50;1.40;;;;;;;;;;6312785;28;20237;-78
2022/01/16 18:23:10;;;;;;;2.67;1.30;;;;;;;;;;6312766;28;20229;-78
2022/01/16 18:26:14;;;;;;;1.40;1.40;;;;;;;;;;6312995;28;20254;-78
2022/01/16 18:29:19;;;;;;;1.53;1.53;;;;;;;;;;6310670;28;20535;-77
2022/01/16 18:32:25;;;;;;;2.83;1.67;;;;;;;;;;6310666;28;20371;-77
2022/01/16 18:35:29;;;;;;;4.00;1.63;;;;;;;;;;6311627;28;20279;-76
2022/01/16 18:38:35;;;;;;;1.50;1.47;;;;;;;;;;6312082;28;20230;-77
2022/01/16 18:41:39;;;;;;;2.77;1.50;;;;;;;;;;6311408;28;20186;-77
2022/01/16 18:44:49;;;;;;;2.73;1.23;;;;;;;;;;6311745;28;20235;-77
2022/01/16 18:48:01;;;;;;;2.67;1.70;;;;;;;;;;6310901;28;20232;-77
2022/01/16 18:51:07;;;;;;;1.50;1.40;;;;;;;;;;6312605;28;20224;-77
2022/01/16 18:54:12;;;;;;;1.13;1.13;;;;;;;;;;6314948;28;20254;-77
2022/01/16 18:57:16;;;;;;;1.53;1.43;;;;;;;;;;6315204;28;20210;-77
2022/01/16 19:00:20;;;;;;;2.63;1.30;;;;;;;;;;6316223;28;20248;-76
2022/01/16 19:03:26;;;;;;;6.10;1.40;;;;;;;;;;6314566;28;20542;-77
2022/01/16 19:06:30;;;;;;;1.40;1.40;;;;;;;;;;6314887;28;20193;-77
2022/01/16 19:09:34;;;;;;;1.50;1.50;;;;;;;;;;6314497;28;20231;-77